createdAt,value
2018-09-19T00:02:14.911Z,22.40
2018-09-19T00:04:43.651Z,22.40
2018-09-19T00:07:12.695Z,22.40
2018-09-19T00:09:40.956Z,22.40
2018-09-19T00:12:10.007Z,22.30
2018-09-19T00:14:38.247Z,22.20
2018-09-19T00:17:06.588Z,22.10
2018-09-19T00:19:34.818Z,22.00
2018-09-19T00:22:03.080Z,21.90
2018-09-19T00:24:31.328Z,21.90
2018-09-19T00:27:00.347Z,21.70
2018-09-19T00:29:28.630Z,21.70
2018-09-19T00:31:56.904Z,21.60
2018-09-19T00:34:25.160Z,21.60
2018-09-19T00:36:54.469Z,21.70
2018-09-19T00:39:22.734Z,21.70
2018-09-19T00:41:50.986Z,21.70
2018-09-19T00:44:20.020Z,21.60
2018-09-19T00:46:48.346Z,21.60
2018-09-19T00:49:16.555Z,21.50
2018-09-19T00:51:45.147Z,21.40
2018-09-19T00:54:13.396Z,21.30
2018-09-19T00:56:42.406Z,21.30
2018-09-19T00:59:10.662Z,21.30
2018-09-19T01:01:39.688Z,21.30
2018-09-19T01:04:08.773Z,21.30
2018-09-19T01:06:38.685Z,21.30
2018-09-19T01:09:06.943Z,21.20
2018-09-19T01:11:35.199Z,21.10
2018-09-19T01:14:04.214Z,20.70
2018-09-19T01:16:32.483Z,20.70
2018-09-19T01:19:01.486Z,20.80
2018-09-19T01:21:29.783Z,20.80
2018-09-19T01:23:58.870Z,20.60
2018-09-19T01:26:27.110Z,20.60
2018-09-19T01:28:56.133Z,20.40
2018-09-19T01:31:24.408Z,20.40
2018-09-19T01:33:54.309Z,20.40
2018-09-19T01:36:22.565Z,20.40
2018-09-19T01:38:51.681Z,20.30
2018-09-19T01:41:19.923Z,20.30
2018-09-19T01:43:48.193Z,20.30
2018-09-19T01:46:16.618Z,20.30
2018-09-19T01:48:44.873Z,20.30
2018-09-19T01:51:13.881Z,20.30
2018-09-19T01:53:42.291Z,20.30
2018-09-19T01:56:10.539Z,20.30
2018-09-19T01:58:38.779Z,20.30
2018-09-19T02:01:07.906Z,20.30
2018-09-19T02:03:36.455Z,20.30
2018-09-19T02:06:04.730Z,20.30
2018-09-19T02:08:33.761Z,20.30
2018-09-19T02:11:02.000Z,20.30
2018-09-19T02:13:31.238Z,20.40
2018-09-19T02:15:59.424Z,20.40
2018-09-19T02:18:27.662Z,20.40
2018-09-19T02:20:55.917Z,20.40
2018-09-19T02:23:24.926Z,20.30
2018-09-19T02:25:53.199Z,20.30
2018-09-19T02:28:21.465Z,20.30
2018-09-19T02:30:49.682Z,20.30
2018-09-19T02:33:18.275Z,20.30
2018-09-19T02:35:46.476Z,20.30
2018-09-19T02:38:14.926Z,20.40
2018-09-19T02:40:43.199Z,20.50
2018-09-19T02:43:12.215Z,20.60
2018-09-19T02:45:40.473Z,20.60
2018-09-19T02:48:08.729Z,20.70
2018-09-19T02:50:36.982Z,20.70
2018-09-19T02:53:05.302Z,20.80
2018-09-19T02:55:34.365Z,20.80
2018-09-19T02:58:02.911Z,20.70
2018-09-19T03:00:31.930Z,20.80
2018-09-19T03:03:00.755Z,20.80
2018-09-19T03:05:29.056Z,20.80
2018-09-19T03:07:57.297Z,20.70
2018-09-19T03:10:25.549Z,20.70
2018-09-19T03:12:53.824Z,20.60
2018-09-19T03:15:22.064Z,20.50
2018-09-19T03:17:51.150Z,20.40
2018-09-19T03:20:19.350Z,20.40
2018-09-19T03:22:48.367Z,20.40
2018-09-19T03:25:16.623Z,20.40
2018-09-19T03:27:44.895Z,20.40
2018-09-19T03:30:13.948Z,20.40
2018-09-19T03:32:42.190Z,20.50
2018-09-19T03:35:10.461Z,20.40
2018-09-19T03:37:38.719Z,20.40
2018-09-19T03:40:06.963Z,20.50
2018-09-19T03:42:35.224Z,20.50
2018-09-19T03:45:03.496Z,20.40
2018-09-19T03:47:31.771Z,20.30
2018-09-19T03:50:00.010Z,20.30
2018-09-19T03:52:28.685Z,20.30
2018-09-19T03:54:56.927Z,20.40
2018-09-19T03:57:25.170Z,20.30
2018-09-19T03:59:53.833Z,20.40
2018-09-19T04:02:22.071Z,20.40
2018-09-19T04:04:51.077Z,20.50
2018-09-19T04:07:19.429Z,20.40
2018-09-19T04:09:47.638Z,20.50
2018-09-19T04:12:15.936Z,20.50
2018-09-19T04:14:44.937Z,20.30
2018-09-19T04:17:13.995Z,20.20
2018-09-19T04:19:43.000Z,20.10
2018-09-19T04:22:11.658Z,20.10
2018-09-19T04:24:40.694Z,19.90
2018-09-19T04:27:08.958Z,19.90
2018-09-19T04:29:37.217Z,19.80
2018-09-19T04:32:05.512Z,19.70
2018-09-19T04:34:34.087Z,19.70
2018-09-19T04:37:02.354Z,19.70
2018-09-19T04:39:30.595Z,19.70
2018-09-19T04:41:59.633Z,19.50
2018-09-19T04:44:27.962Z,19.50
2018-09-19T04:46:56.170Z,19.50
2018-09-19T04:49:24.583Z,19.40
2018-09-19T04:51:52.843Z,19.40
2018-09-19T04:54:21.096Z,19.40
2018-09-19T04:56:49.343Z,19.40
2018-09-19T04:59:18.368Z,19.20
2018-09-19T05:01:46.750Z,19.20
2018-09-19T05:04:15.018Z,19.30
2018-09-19T05:06:43.275Z,19.30
2018-09-19T05:09:12.315Z,19.30
2018-09-19T05:11:40.575Z,19.30
2018-09-19T05:14:08.820Z,19.20
2018-09-19T05:16:37.891Z,18.90
2018-09-19T05:19:06.277Z,18.90
2018-09-19T05:21:35.301Z,19.00
2018-09-19T05:24:03.550Z,19.00
2018-09-19T05:26:32.577Z,19.20
2018-09-19T05:29:00.855Z,19.20
2018-09-19T05:31:29.138Z,19.30
2018-09-19T05:33:57.367Z,19.20
2018-09-19T05:36:26.631Z,19.00
2018-09-19T05:38:54.877Z,19.00
2018-09-19T05:41:23.129Z,19.10
2018-09-19T05:43:52.402Z,19.10
2018-09-19T05:46:20.671Z,19.10
2018-09-19T05:48:48.888Z,19.20
2018-09-19T05:51:17.151Z,19.30
2018-09-19T05:53:46.189Z,19.40
2018-09-19T05:56:14.519Z,19.30
2018-09-19T05:58:42.805Z,19.40
2018-09-19T06:01:11.109Z,19.50
2018-09-19T06:03:40.121Z,19.40
2018-09-19T06:06:08.364Z,19.40
2018-09-19T06:08:36.747Z,19.40
2018-09-19T06:11:04.975Z,19.30
2018-09-19T06:13:33.981Z,19.40
2018-09-19T06:16:02.252Z,19.40
2018-09-19T06:18:31.294Z,19.60
2018-09-19T06:20:59.557Z,19.70
2018-09-19T06:23:27.830Z,19.80
2018-09-19T06:25:56.147Z,20.10
2018-09-19T06:28:24.580Z,20.20
2018-09-19T06:30:52.823Z,20.30
2018-09-19T06:33:21.886Z,20.40
2018-09-19T06:35:50.163Z,20.40
2018-09-19T06:38:18.419Z,20.50
2018-09-19T06:40:46.766Z,20.50
2018-09-19T06:43:15.058Z,20.60
2018-09-19T06:45:43.318Z,20.70
2018-09-19T06:48:11.539Z,20.80
2018-09-19T06:50:39.809Z,20.80
2018-09-19T06:53:08.065Z,21.00
2018-09-19T06:55:37.066Z,21.20
2018-09-19T06:58:05.339Z,21.20
2018-09-19T07:00:33.581Z,21.40
2018-09-19T07:03:01.885Z,21.60
2018-09-19T07:05:30.125Z,21.80
2018-09-19T07:07:58.422Z,22.10
2018-09-19T07:10:26.655Z,22.30
2018-09-19T07:12:54.905Z,22.50
2018-09-19T07:15:23.163Z,22.60
2018-09-19T07:17:51.443Z,22.60
2018-09-19T07:20:19.692Z,22.80
2018-09-19T07:22:47.933Z,23.10
2018-09-19T07:25:17.030Z,23.40
2018-09-19T07:27:45.221Z,23.40
2018-09-19T07:30:13.465Z,23.50
2018-09-19T07:32:42.498Z,23.70
2018-09-19T07:35:10.858Z,23.70
2018-09-19T07:37:39.147Z,23.80
2018-09-19T07:40:07.415Z,24.00
2018-09-19T07:42:35.664Z,24.00
2018-09-19T07:45:04.679Z,24.30
2018-09-19T07:47:32.951Z,24.20
2018-09-19T07:50:02.127Z,24.30
2018-09-19T07:52:31.168Z,24.70
2018-09-19T07:54:59.402Z,24.70
2018-09-19T07:57:27.672Z,24.70
2018-09-19T07:59:56.688Z,25.00
2018-09-19T08:02:24.947Z,24.90
2018-09-19T08:04:53.220Z,25.10
2018-09-19T08:07:22.452Z,25.30
2018-09-19T08:09:50.697Z,25.30
2018-09-19T08:12:18.949Z,25.40
2018-09-19T08:14:47.201Z,25.60
2018-09-19T08:17:15.743Z,25.60
2018-09-19T08:19:43.976Z,25.70
2018-09-19T08:22:12.233Z,25.90
2018-09-19T08:24:40.501Z,26.00
2018-09-19T08:27:08.761Z,26.10
2018-09-19T08:29:37.015Z,26.20
2018-09-19T08:32:05.266Z,26.30
2018-09-19T08:34:34.294Z,26.50
2018-09-19T08:37:02.908Z,26.50
2018-09-19T08:39:31.155Z,26.60
2018-09-19T08:41:59.397Z,26.70
2018-09-19T08:44:27.666Z,26.70
2018-09-19T08:46:56.682Z,26.70
2018-09-19T08:49:25.021Z,26.70
2018-09-19T08:51:53.246Z,26.70
2018-09-19T08:54:21.514Z,26.60
2018-09-19T08:56:49.843Z,26.50
2018-09-19T08:59:18.079Z,26.50
2018-09-19T09:01:46.319Z,26.70
2018-09-19T09:04:14.609Z,26.90
2018-09-19T09:06:42.870Z,27.10
2018-09-19T09:09:11.118Z,27.20
2018-09-19T09:11:39.373Z,27.10
2018-09-19T09:14:08.183Z,27.20
2018-09-19T09:16:37.191Z,27.30
2018-09-19T09:19:06.270Z,27.50
2018-09-19T09:21:34.685Z,27.50
2018-09-19T09:24:02.944Z,27.70
2018-09-19T09:26:31.192Z,27.90
2018-09-19T09:28:59.494Z,27.90
2018-09-19T09:31:27.808Z,27.80
2018-09-19T09:33:56.062Z,27.80
2018-09-19T09:36:24.323Z,27.80
2018-09-19T09:38:53.342Z,27.80
2018-09-19T09:41:21.591Z,27.80
2018-09-19T09:43:49.966Z,27.90
2018-09-19T09:46:19.193Z,28.00
2018-09-19T09:48:47.434Z,28.00
2018-09-19T09:51:15.707Z,27.80
2018-09-19T09:53:44.718Z,27.90
2018-09-19T09:56:12.977Z,27.90
2018-09-19T09:58:41.999Z,28.20
2018-09-19T10:01:10.434Z,28.20
2018-09-19T10:03:38.643Z,28.50
2018-09-19T10:06:06.883Z,28.60
2018-09-19T10:08:35.915Z,28.70
2018-09-19T10:11:04.168Z,28.70
2018-09-19T10:13:32.444Z,28.70
2018-09-19T10:16:01.435Z,28.90
2018-09-19T10:18:29.701Z,28.90
2018-09-19T10:20:58.755Z,29.40
2018-09-19T10:23:26.994Z,29.40
2018-09-19T10:25:55.247Z,29.40
2018-09-19T10:28:24.278Z,29.70
2018-09-19T10:30:52.527Z,29.60
2018-09-19T10:33:20.839Z,29.80
2018-09-19T10:35:49.846Z,30.00
2018-09-19T10:38:18.098Z,30.00
2018-09-19T10:40:46.363Z,30.00
2018-09-19T10:43:14.614Z,30.10
2018-09-19T10:45:42.885Z,30.20
2018-09-19T10:48:11.902Z,30.10
2018-09-19T10:50:40.283Z,30.10
2018-09-19T10:53:08.576Z,30.10
2018-09-19T10:55:36.831Z,29.90
2018-09-19T10:58:05.096Z,30.00
2018-09-19T11:00:33.343Z,30.20
2018-09-19T11:03:02.390Z,30.50
2018-09-19T11:05:30.711Z,30.50
2018-09-19T11:07:58.958Z,30.60
2018-09-19T11:10:27.514Z,30.50
2018-09-19T11:12:55.801Z,30.60
2018-09-19T11:15:24.048Z,30.30
2018-09-19T11:17:52.310Z,30.10
2018-09-19T11:20:20.543Z,29.90
2018-09-19T11:22:48.996Z,29.90
2018-09-19T11:25:17.237Z,30.10
2018-09-19T11:27:45.485Z,30.20
2018-09-19T11:30:13.775Z,30.20
2018-09-19T11:32:42.817Z,30.70
2018-09-19T11:35:11.071Z,30.70
2018-09-19T11:37:39.338Z,31.00
2018-09-19T11:40:07.612Z,31.00
2018-09-19T11:42:35.871Z,31.00
2018-09-19T11:45:04.872Z,30.90
2018-09-19T11:47:33.146Z,30.90
2018-09-19T11:50:01.407Z,30.40
2018-09-19T11:52:30.426Z,30.60
2018-09-19T11:54:58.678Z,30.60
2018-09-19T11:57:27.687Z,31.00
2018-09-19T11:59:55.944Z,31.00
2018-09-19T12:02:24.976Z,31.50
2018-09-19T12:04:53.219Z,31.50
2018-09-19T12:07:22.322Z,31.80
2018-09-19T12:09:50.564Z,31.80
2018-09-19T12:12:19.710Z,31.60
2018-09-19T12:14:48.215Z,31.60
2018-09-19T12:17:16.468Z,31.70
2018-09-19T12:19:44.723Z,31.50
2018-09-19T12:22:13.107Z,31.50
2018-09-19T12:24:41.365Z,31.50
2018-09-19T12:27:10.359Z,31.80
2018-09-19T12:29:39.399Z,31.70
2018-09-19T12:32:07.667Z,31.70
2018-09-19T12:34:35.946Z,31.70
2018-09-19T12:37:04.210Z,31.90
2018-09-19T12:39:32.584Z,31.70
2018-09-19T12:42:00.986Z,31.60
2018-09-19T12:44:29.263Z,31.70
2018-09-19T12:46:57.578Z,31.90
2018-09-19T12:49:26.586Z,32.20
2018-09-19T12:51:54.855Z,32.20
2018-09-19T12:54:23.118Z,32.30
2018-09-19T12:56:52.137Z,32.20
2018-09-19T12:59:20.410Z,32.10
2018-09-19T13:01:48.671Z,32.00
2018-09-19T13:04:17.681Z,32.20
2018-09-19T13:06:45.952Z,32.20
2018-09-19T13:09:14.545Z,32.30
2018-09-19T13:11:42.792Z,32.50
2018-09-19T13:14:11.804Z,32.50
2018-09-19T13:16:40.063Z,32.50
2018-09-19T13:19:08.331Z,32.20
2018-09-19T13:21:38.147Z,32.30
2018-09-19T13:24:07.251Z,32.10
2018-09-19T13:26:35.535Z,32.20
2018-09-19T13:29:03.914Z,32.00
2018-09-19T13:31:32.163Z,32.00
2018-09-19T13:34:01.178Z,31.80
2018-09-19T13:36:29.506Z,31.80
2018-09-19T13:38:57.774Z,31.80
2018-09-19T13:41:26.022Z,31.90
2018-09-19T13:43:54.290Z,32.00
2018-09-19T13:46:22.562Z,32.20
2018-09-19T13:48:50.812Z,32.20
2018-09-19T13:51:19.848Z,31.90
2018-09-19T13:53:48.094Z,31.90
2018-09-19T13:56:16.746Z,32.10
2018-09-19T13:58:45.026Z,31.90
2018-09-19T14:01:13.260Z,31.80
2018-09-19T14:03:41.576Z,31.70
2018-09-19T14:06:09.832Z,31.90
2018-09-19T14:08:38.447Z,32.30
2018-09-19T14:11:07.604Z,32.50
2018-09-19T14:13:35.874Z,32.40
2018-09-19T14:16:04.138Z,32.70
2018-09-19T14:18:32.402Z,32.80
2018-09-19T14:21:01.422Z,32.70
2018-09-19T14:23:29.671Z,32.70
2018-09-19T14:25:57.952Z,32.90
2018-09-19T14:28:27.111Z,32.70
2018-09-19T14:30:55.290Z,32.60
2018-09-19T14:33:23.538Z,32.60
2018-09-19T14:35:52.663Z,32.50
2018-09-19T14:38:20.850Z,32.50
2018-09-19T14:40:49.184Z,32.60
2018-09-19T14:43:17.419Z,32.40
2018-09-19T14:45:45.738Z,32.20
2018-09-19T14:48:14.661Z,31.90
2018-09-19T14:50:42.947Z,31.90
2018-09-19T14:53:11.181Z,31.90
2018-09-19T14:55:40.227Z,31.50
2018-09-19T14:58:08.493Z,31.50
2018-09-19T15:00:36.766Z,31.20
2018-09-19T15:03:05.027Z,31.10
2018-09-19T15:05:33.303Z,31.30
2018-09-19T15:08:01.588Z,31.60
2018-09-19T15:10:30.584Z,32.00
2018-09-19T15:12:58.847Z,32.00
2018-09-19T15:15:27.091Z,32.00
2018-09-19T15:17:56.609Z,32.20
2018-09-19T15:20:24.839Z,32.20
2018-09-19T15:22:53.123Z,32.20
2018-09-19T15:25:21.364Z,32.20
2018-09-19T15:27:49.611Z,32.00
2018-09-19T15:30:17.894Z,31.50
2018-09-19T15:32:46.136Z,31.30
2018-09-19T15:35:14.403Z,31.00
2018-09-19T15:37:42.661Z,31.00
2018-09-19T15:40:10.943Z,31.00
2018-09-19T15:42:39.290Z,31.30
2018-09-19T15:45:07.574Z,31.40
2018-09-19T15:47:35.870Z,31.50
2018-09-19T15:50:04.882Z,31.70
2018-09-19T15:52:33.249Z,31.70
2018-09-19T15:55:01.507Z,31.60
2018-09-19T15:57:29.840Z,31.50
2018-09-19T15:59:58.344Z,31.40
2018-09-19T16:02:26.604Z,31.20
2018-09-19T16:04:54.926Z,30.70
2018-09-19T16:07:23.467Z,30.80
2018-09-19T16:09:51.720Z,31.10
2018-09-19T16:12:20.751Z,31.50
2018-09-19T16:14:49.311Z,31.50
2018-09-19T16:17:17.555Z,31.70
2018-09-19T16:19:46.569Z,31.70
2018-09-19T16:22:14.979Z,31.70
2018-09-19T16:24:43.223Z,31.60
2018-09-19T16:27:11.483Z,31.60
2018-09-19T16:29:40.584Z,31.70
2018-09-19T16:32:09.053Z,31.70
2018-09-19T16:34:37.361Z,31.70
2018-09-19T16:37:05.633Z,31.70
2018-09-19T16:39:33.884Z,31.60
2018-09-19T16:42:02.160Z,31.70
2018-09-19T16:44:31.460Z,31.80
2018-09-19T16:47:00.478Z,31.80
2018-09-19T16:49:28.739Z,31.80
2018-09-19T16:51:57.001Z,31.70
2018-09-19T16:54:26.010Z,31.40
2018-09-19T16:56:54.272Z,31.40
2018-09-19T16:59:23.299Z,31.30
2018-09-19T17:01:51.555Z,31.30
2018-09-19T17:04:19.870Z,31.10
2018-09-19T17:06:48.142Z,31.00
2018-09-19T17:09:16.387Z,31.00
2018-09-19T17:11:44.658Z,31.00
2018-09-19T17:14:12.912Z,30.90
2018-09-19T17:16:41.969Z,30.80
2018-09-19T17:19:10.247Z,30.80
2018-09-19T17:21:38.498Z,30.80
2018-09-19T17:24:06.949Z,30.70
2018-09-19T17:26:35.194Z,30.60
2018-09-19T17:29:04.222Z,30.40
2018-09-19T17:31:32.488Z,30.40
2018-09-19T17:34:00.797Z,30.40
2018-09-19T17:36:29.083Z,30.40
2018-09-19T17:38:57.338Z,30.30
2018-09-19T17:41:25.596Z,30.20
2018-09-19T17:43:54.601Z,30.00
2018-09-19T17:46:22.887Z,30.00
2018-09-19T17:48:51.127Z,29.90
2018-09-19T17:51:19.451Z,29.70
2018-09-19T17:53:47.766Z,29.70
2018-09-19T17:56:16.774Z,29.60
2018-09-19T17:58:45.071Z,29.50
2018-09-19T18:01:13.318Z,29.40
2018-09-19T18:03:41.611Z,29.20
2018-09-19T18:06:09.935Z,29.20
2018-09-19T18:08:38.206Z,29.20
2018-09-19T18:11:06.479Z,28.60
2018-09-19T18:13:34.746Z,28.00
2018-09-19T18:16:03.023Z,27.40
2018-09-19T18:18:31.274Z,27.20
2018-09-19T18:20:59.542Z,27.10
2018-09-19T18:23:27.806Z,27.10
2018-09-19T18:25:56.055Z,27.00
2018-09-19T18:28:26.325Z,26.80
2018-09-19T18:30:55.008Z,26.80
2018-09-19T18:33:23.243Z,26.60
2018-09-19T18:35:52.259Z,26.30
2018-09-19T18:38:20.644Z,26.30
2018-09-19T18:40:48.867Z,26.30
2018-09-19T18:43:17.132Z,26.10
2018-09-19T18:45:45.401Z,26.00
2018-09-19T18:48:13.674Z,25.90
2018-09-19T18:50:41.946Z,25.80
2018-09-19T18:53:10.229Z,25.50
2018-09-19T18:55:38.474Z,25.30
2018-09-19T18:58:06.744Z,25.30
2018-09-19T19:00:35.033Z,25.30
2018-09-19T19:03:03.334Z,25.10
2018-09-19T19:05:31.573Z,25.00
2018-09-19T19:07:59.835Z,25.10
2018-09-19T19:10:28.117Z,25.10
2018-09-19T19:12:56.428Z,25.00
2018-09-19T19:15:24.694Z,25.10
2018-09-19T19:17:52.940Z,25.00
2018-09-19T19:20:21.231Z,24.90
2018-09-19T19:22:49.507Z,24.80
2018-09-19T19:25:17.762Z,24.80
2018-09-19T19:27:46.030Z,24.70
2018-09-19T19:30:14.354Z,24.70
2018-09-19T19:32:43.302Z,24.60
2018-09-19T19:35:11.566Z,24.60
2018-09-19T19:37:39.876Z,24.60
2018-09-19T19:40:08.843Z,24.70
2018-09-19T19:42:37.100Z,24.70
2018-09-19T19:45:06.130Z,24.70
2018-09-19T19:47:34.399Z,24.70
2018-09-19T19:50:02.673Z,24.60
2018-09-19T19:52:30.910Z,24.50
2018-09-19T19:54:59.938Z,24.30
2018-09-19T19:57:28.194Z,24.30
2018-09-19T19:59:57.240Z,24.10
2018-09-19T20:02:25.482Z,24.10
2018-09-19T20:04:53.889Z,24.10
2018-09-19T20:07:22.147Z,24.00
2018-09-19T20:09:50.370Z,24.00
2018-09-19T20:12:19.547Z,24.10
2018-09-19T20:14:47.795Z,24.00
2018-09-19T20:17:16.065Z,24.00
2018-09-19T20:19:44.338Z,24.10
2018-09-19T20:22:12.591Z,23.90
2018-09-19T20:24:40.856Z,23.90
2018-09-19T20:27:10.043Z,23.80
2018-09-19T20:29:39.048Z,23.70
2018-09-19T20:32:07.303Z,23.60
2018-09-19T20:34:35.577Z,23.50
2018-09-19T20:37:03.854Z,23.50
2018-09-19T20:39:32.098Z,23.40
2018-09-19T20:42:00.362Z,23.40
2018-09-19T20:44:28.655Z,23.40
2018-09-19T20:46:56.961Z,23.40
2018-09-19T20:49:25.251Z,23.50
2018-09-19T20:51:54.272Z,23.50
2018-09-19T20:54:22.671Z,23.50
2018-09-19T20:56:50.935Z,23.60
2018-09-19T20:59:19.176Z,23.70
2018-09-19T21:01:47.467Z,23.80
2018-09-19T21:04:15.769Z,23.60
2018-09-19T21:06:43.984Z,23.40
2018-09-19T21:09:13.001Z,23.20
2018-09-19T21:11:41.273Z,23.20
2018-09-19T21:14:10.282Z,23.40
2018-09-19T21:16:38.550Z,23.30
2018-09-19T21:19:06.805Z,23.40
2018-09-19T21:21:35.983Z,23.50
2018-09-19T21:24:04.185Z,23.40
2018-09-19T21:26:32.443Z,23.30
2018-09-19T21:29:01.491Z,22.70
2018-09-19T21:31:29.739Z,22.70
2018-09-19T21:33:58.027Z,22.60
2018-09-19T21:36:26.286Z,22.70
2018-09-19T21:38:54.530Z,22.90
2018-09-19T21:41:22.774Z,23.10
2018-09-19T21:43:51.062Z,23.20
2018-09-19T21:46:20.136Z,23.30
2018-09-19T21:48:48.407Z,23.40
2018-09-19T21:51:16.676Z,23.40
2018-09-19T21:53:44.956Z,23.30
2018-09-19T21:56:13.218Z,23.20
2018-09-19T21:58:41.490Z,23.20
2018-09-19T22:01:09.743Z,23.20
2018-09-19T22:03:38.180Z,23.20
2018-09-19T22:06:06.436Z,22.90
2018-09-19T22:08:34.685Z,22.80
2018-09-19T22:11:02.949Z,22.80
2018-09-19T22:13:31.531Z,23.00
2018-09-19T22:15:59.800Z,23.10
2018-09-19T22:18:28.841Z,23.30
2018-09-19T22:20:57.133Z,23.20
2018-09-19T22:23:25.388Z,23.40
2018-09-19T22:25:53.645Z,23.40
2018-09-19T22:28:21.914Z,23.50
2018-09-19T22:30:50.189Z,23.40
2018-09-19T22:33:18.443Z,23.50
2018-09-19T22:35:46.714Z,23.50
2018-09-19T22:38:15.814Z,23.50
2018-09-19T22:40:44.855Z,23.50
2018-09-19T22:43:13.908Z,23.40
2018-09-19T22:45:42.204Z,23.40
2018-09-19T22:48:10.453Z,22.90
2018-09-19T22:50:39.462Z,22.30
2018-09-19T22:53:07.742Z,22.30
2018-09-19T22:55:35.999Z,22.20
2018-09-19T22:58:04.532Z,22.00
2018-09-19T23:00:32.770Z,21.70
2018-09-19T23:03:01.022Z,21.60
2018-09-19T23:05:29.435Z,21.60
2018-09-19T23:07:57.685Z,21.70
2018-09-19T23:10:25.956Z,21.80
2018-09-19T23:12:54.976Z,21.40
2018-09-19T23:15:23.320Z,21.40
2018-09-19T23:17:51.568Z,21.30
2018-09-19T23:20:19.838Z,21.30
2018-09-19T23:22:48.114Z,21.30
2018-09-19T23:25:16.375Z,21.40
2018-09-19T23:27:44.761Z,21.40
2018-09-19T23:30:13.024Z,21.40
2018-09-19T23:32:41.285Z,21.40
2018-09-19T23:35:09.575Z,21.50
2018-09-19T23:37:37.811Z,21.40
2018-09-19T23:40:06.084Z,21.40
2018-09-19T23:42:34.344Z,21.40
2018-09-19T23:45:03.378Z,21.40
2018-09-19T23:47:31.635Z,21.40
2018-09-19T23:50:00.034Z,21.50
2018-09-19T23:52:28.287Z,21.70
2018-09-19T23:54:56.528Z,21.80
2018-09-19T23:57:25.546Z,21.50
2018-09-19T23:59:53.802Z,21.50
